Time;durP1;ratioP1;P1;durP2;ratioP2;P2;SDS_P1;SDS_P2;PMS_P1;PMS_P2;Temp;Humidity;BMP_temperature;BMP_pressure;BME280_temperature;BME280_humidity;BME280_pressure;Samples;Min_cycle;Max_cycle;Signal;HPM_P1;HPM_P2
2024/03/04 00:05:19;;;;;;;27.9;15.6;;;;;;;7.71;85.91;97828.333333333;;;;
2024/03/04 00:15:19;;;;;;;27.9;15.6;;;;;;;7.52;86.75;97826.666666667;;;;
2024/03/04 00:26:19;;;;;;;27.9;15.6;;;;;;;7.35;87.25;97821.666666667;;;;
2024/03/04 00:37:19;;;;;;;26.8;17.1;;;;;;;7.1;88.36;97825;;;;
2024/03/04 00:47:19;;;;;;;26.8;17.1;;;;;;;6.92;89.12;97818.333333333;;;;
2024/03/04 00:57:21;;;;;;;26.8;17.1;;;;;;;6.77;88.76;97821.666666667;;;;
2024/03/04 01:08:19;;;;;;;24.8;15.9;;;;;;;6.46;88.79;97825;;;;
2024/03/04 01:18:20;;;;;;;24.8;15.9;;;;;;;6.33;88.44;97823.333333333;;;;
2024/03/04 01:29:19;;;;;;;24.8;15.9;;;;;;;6.12;89.66;97816.666666667;;;;
2024/03/04 01:39:21;;;;;;;30.1;16.7;;;;;;;5.97;89.55;97811.666666667;;;;
2024/03/04 01:50:19;;;;;;;30.1;16.7;;;;;;;5.86;88.82;97813.333333333;;;;
2024/03/04 02:01:19;;;;;;;30.1;16.7;;;;;;;5.71;88.87;97815;;;;
2024/03/04 02:12:19;;;;;;;25.6;15.7;;;;;;;5.52;88.4;97823.333333333;;;;
2024/03/04 02:23:19;;;;;;;25.6;15.7;;;;;;;5.3;88.39;97830;;;;
2024/03/04 02:33:20;;;;;;;28.6;16.5;;;;;;;5.16;88.95;97838.333333333;;;;
2024/03/04 02:44:19;;;;;;;28.6;16.5;;;;;;;5.02;89.37;97831.666666667;;;;
2024/03/04 02:55:19;;;;;;;28.6;16.5;;;;;;;4.83;89.74;97840;;;;
2024/03/04 03:05:20;;;;;;;28.8;17.7;;;;;;;4.76;90.23;97840;;;;
2024/03/04 03:16:20;;;;;;;28.8;17.7;;;;;;;4.66;90.14;97838.333333333;;;;
2024/03/04 03:26:19;;;;;;;28.8;17.7;;;;;;;4.48;90.04;97885;;;;
2024/03/04 03:37:19;;;;;;;28.5;16.3;;;;;;;4.44;90.33;97832.5;;;;
2024/03/04 03:47:19;;;;;;;28.5;16.3;;;;;;;4.39;90.46;97825;;;;
2024/03/04 03:58:19;;;;;;;28.5;16.3;;;;;;;4.31;90.28;97827.5;;;;
2024/03/04 04:09:19;;;;;;;28.5;16.4;;;;;;;4.26;91.31;97817.5;;;;
2024/03/04 04:20:19;;;;;;;28.5;16.4;;;;;;;4.22;91.13;97817.5;;;;
2024/03/04 04:31:20;;;;;;;30.2;17.7;;;;;;;4.2;91.62;97822.5;;;;
2024/03/04 04:41:20;;;;;;;30.2;17.7;;;;;;;4.18;91.12;97835;;;;
2024/03/04 04:51:19;;;;;;;30.2;17.7;;;;;;;4.12;91.13;97830;;;;
2024/03/04 05:02:19;;;;;;;29.5;18;;;;;;;4.08;91.49;97832.5;;;;
2024/03/04 05:12:19;;;;;;;29.5;18;;;;;;;4.04;91.53;97835;;;;
2024/03/04 05:22:19;;;;;;;29.5;18;;;;;;;4.03;92.46;97835;;;;
2024/03/04 05:33:19;;;;;;;34.9;20.2;;;;;;;4.2;92.47;97840;;;;
2024/03/04 05:44:20;;;;;;;34.9;20.2;;;;;;;4.4;92.96;97850;;;;
2024/03/04 05:54:19;;;;;;;34.9;20.2;;;;;;;4.35;93.14;97852.5;;;;
2024/03/04 06:05:19;;;;;;;32.2;20.7;;;;;;;4.52;93.6;97865;;;;
2024/03/04 06:16:20;;;;;;;32.2;20.7;;;;;;;4.66;94.29;97880;;;;
2024/03/04 06:27:19;;;;;;;32.2;20.7;;;;;;;4.92;93.92;97882;;;;
2024/03/04 06:37:19;;;;;;;30.6;18.4;;;;;;;4.99;93.5;97894;;;;
2024/03/04 06:48:19;;;;;;;30.6;18.4;;;;;;;5.15;92.71;97896;;;;
2024/03/04 06:58:19;;;;;;;30.6;18.4;;;;;;;5;92.73;97890;;;;
2024/03/04 07:08:19;;;;;;;25.4;17.2;;;;;;;5.34;93.19;97888;;;;
2024/03/04 07:19:19;;;;;;;25.4;17.2;;;;;;;5.85;92.91;97890;;;;
2024/03/04 07:30:19;;;;;;;25.4;17.2;;;;;;;6.22;91.18;97894;;;;
2024/03/04 07:41:24;;;;;;;30.2;18.3;;;;;;;6.32;90.93;97896;;;;
2024/03/04 07:51:19;;;;;;;30.2;18.3;;;;;;;6.7;90.52;97894;;;;
2024/03/04 08:02:19;;;;;;;34.8;21.4;;;;;;;7.13;89.41;97894;;;;
2024/03/04 08:13:19;;;;;;;34.8;21.4;;;;;;;7.53;87.18;97896;;;;
2024/03/04 08:23:19;;;;;;;34.8;21.4;;;;;;;7.64;87;97894;;;;
2024/03/04 08:33:19;;;;;;;35.3;24.5;;;;;;;8.02;86.73;97892;;;;
2024/03/04 08:44:19;;;;;;;35.3;24.5;;;;;;;8.48;86.02;97892;;;;
2024/03/04 08:55:19;;;;;;;35.3;24.5;;;;;;;8.8;84.95;97884;;;;
2024/03/04 09:05:21;;;;;;;37.5;25.3;;;;;;;9.42;84.4;97874;;;;
2024/03/04 09:15:20;;;;;;;37.5;25.3;;;;;;;10.03;81.67;97868;;;;
2024/03/04 09:25:19;;;;;;;37.5;25.3;;;;;;;10.5;80.18;97862;;;;
2024/03/04 09:35:19;;;;;;;41.6;26.5;;;;;;;11.08;79.29;97858;;;;
2024/03/04 09:46:19;;;;;;;41.6;26.5;;;;;;;11.45;77.42;97862;;;;
2024/03/04 09:57:19;;;;;;;41.6;26.5;;;;;;;11.56;76.22;97862;;;;
2024/03/04 10:08:20;;;;;;;40.7;32.4;;;;;;;12.2;74.69;97854;;;;
2024/03/04 10:19:20;;;;;;;40.7;32.4;;;;;;;12.66;72.64;97844;;;;
2024/03/04 10:29:22;;;;;;;40.7;32.4;;;;;;;12.88;71.28;97844;;;;
2024/03/04 10:40:19;;;;;;;37.1;30.2;;;;;;;13.25;70.13;97824;;;;
2024/03/04 10:50:19;;;;;;;37.1;30.2;;;;;;;13.62;69.75;97804;;;;
2024/03/04 11:00:25;;;;;;;37.1;30.2;;;;;;;13.98;68.32;97794;;;;
2024/03/04 11:11:20;;;;;;;34.4;27.2;;;;;;;13.95;66.39;97790;;;;
2024/03/04 11:22:19;;;;;;;34.4;27.2;;;;;;;14.07;66.58;97784;;;;
2024/03/04 11:32:19;;;;;;;27.7;23.6;;;;;;;13.77;67.94;97784;;;;
2024/03/04 11:42:19;;;;;;;27.7;23.6;;;;;;;13.66;69.1;97778;;;;
2024/03/04 11:53:20;;;;;;;27.7;23.6;;;;;;;13.55;69.91;97774;;;;
2024/03/04 12:03:19;;;;;;;28.3;24.8;;;;;;;13.53;70.5;97764;;;;
2024/03/04 12:14:19;;;;;;;28.3;24.8;;;;;;;13.46;70.94;97764;;;;
2024/03/04 12:24:21;;;;;;;28.3;24.8;;;;;;;13.13;73.01;97764;;;;
2024/03/04 12:34:20;;;;;;;29.3;25.1;;;;;;;12.86;74.07;97772;;;;
2024/03/04 12:45:20;;;;;;;29.3;25.1;;;;;;;12.95;73.29;97766;;;;
2024/03/04 12:56:19;;;;;;;29.3;25.1;;;;;;;12.88;74.68;97746;;;;
2024/03/04 13:06:20;;;;;;;32.8;23.4;;;;;;;12.87;74.7;97762;;;;
2024/03/04 13:16:20;;;;;;;32.8;23.4;;;;;;;12.73;77.4;97756;;;;
2024/03/04 13:27:19;;;;;;;32.8;23.4;;;;;;;12.56;79.77;97736;;;;
2024/03/04 13:38:19;;;;;;;30.8;25.3;;;;;;;12.56;80.22;97754;;;;
2024/03/04 13:48:20;;;;;;;30.8;25.3;;;;;;;12.32;82.25;97734;;;;
2024/03/04 13:59:19;;;;;;;30.8;25.3;;;;;;;12.34;82.36;97753.333333333;;;;
2024/03/04 14:09:19;;;;;;;37.5;30.3;;;;;;;12.38;83.05;97720;;;;
2024/03/04 14:19:19;;;;;;;37.5;30.3;;;;;;;12.54;82.59;97710;;;;
2024/03/04 14:29:20;;;;;;;37.5;30.3;;;;;;;12.66;81.6;97722;;;;
2024/03/04 14:40:20;;;;;;;30.1;23.5;;;;;;;12.88;81.28;97743.333333333;;;;
2024/03/04 14:50:20;;;;;;;30.1;23.5;;;;;;;12.86;80.62;97718;;;;
2024/03/04 15:00:20;;;;;;;30.1;23.5;;;;;;;12.75;81.63;97726;;;;
2024/03/04 15:11:20;;;;;;;33.9;29.2;;;;;;;12.73;82.18;97726;;;;
2024/03/04 15:22:20;;;;;;;33.9;29.2;;;;;;;12.49;82.88;97740;;;;
2024/03/04 15:32:20;;;;;;;34.4;29.1;;;;;;;12.44;83.07;97734;;;;
2024/03/04 15:43:20;;;;;;;34.4;29.1;;;;;;;12.28;83.05;97742;;;;
2024/03/04 15:53:20;;;;;;;34.4;29.1;;;;;;;12.13;83.19;97748;;;;
2024/03/04 16:03:20;;;;;;;37.3;29.4;;;;;;;11.74;85.14;97752;;;;
2024/03/04 16:14:20;;;;;;;37.3;29.4;;;;;;;11.71;84.68;97762;;;;
2024/03/04 16:24:20;;;;;;;37.3;29.4;;;;;;;11.47;85.69;97764;;;;
2024/03/04 16:35:20;;;;;;;40.4;27.6;;;;;;;11.45;85.2;97762;;;;
2024/03/04 16:46:20;;;;;;;40.4;27.6;;;;;;;11.4;85.25;97766;;;;
2024/03/04 16:57:20;;;;;;;40.4;27.6;;;;;;;11.19;86.01;97756;;;;
2024/03/04 17:07:20;;;;;;;43.7;32;;;;;;;11.24;85.55;97772;;;;
2024/03/04 17:18:20;;;;;;;43.7;32;;;;;;;11.03;86.03;97786;;;;
2024/03/04 17:29:20;;;;;;;43.7;32;;;;;;;11.04;86.5;97788;;;;
2024/03/04 17:40:20;;;;;;;38.2;29.9;;;;;;;10.9;87.96;97790;;;;
2024/03/04 17:51:20;;;;;;;38.2;29.9;;;;;;;10.77;88.5;97784;;;;
2024/03/04 18:01:20;;;;;;;98.7;65.8;;;;;;;10.75;89.07;97794;;;;
2024/03/04 18:12:20;;;;;;;98.7;65.8;;;;;;;10.52;89.72;97802;;;;
2024/03/04 18:22:20;;;;;;;98.7;65.8;;;;;;;10.65;89;97816;;;;
2024/03/04 18:33:20;;;;;;;45.5;28.8;;;;;;;10.63;88.33;97812;;;;
2024/03/04 18:43:20;;;;;;;45.5;28.8;;;;;;;10.55;88.54;97822;;;;
2024/03/04 18:53:20;;;;;;;45.5;28.8;;;;;;;10.44;89.16;97828.333333333;;;;
2024/03/04 19:04:23;;;;;;;41;26.6;;;;;;;10.36;89.09;97848;;;;
2024/03/04 19:15:20;;;;;;;41;26.6;;;;;;;10.17;90.21;97830;;;;
2024/03/04 19:26:20;;;;;;;41;26.6;;;;;;;10.08;90.3;97842.5;;;;
2024/03/04 19:36:20;;;;;;;47.9;35;;;;;;;9.98;90.33;97850;;;;
2024/03/04 19:47:20;;;;;;;47.9;35;;;;;;;9.99;90.26;97858.333333333;;;;
2024/03/04 19:58:20;;;;;;;47.9;35;;;;;;;9.57;90.82;97865;;;;
2024/03/04 20:08:20;;;;;;;41.8;26.6;;;;;;;9.7;90.27;97873.333333333;;;;
2024/03/04 20:18:20;;;;;;;41.8;26.6;;;;;;;9.63;90.39;97873.333333333;;;;
2024/03/04 20:29:22;;;;;;;41.8;26.6;;;;;;;9.75;89.31;97903.333333333;;;;
2024/03/04 20:39:20;;;;;;;45;29.5;;;;;;;9.85;89.45;97906.666666667;;;;
2024/03/04 20:50:20;;;;;;;45;29.5;;;;;;;9.61;89.44;97893.333333333;;;;
2024/03/04 21:00:20;;;;;;;42.2;25.3;;;;;;;9.66;88.99;97895;;;;
2024/03/04 21:11:20;;;;;;;42.2;25.3;;;;;;;9.57;88.99;97888.333333333;;;;
2024/03/04 21:22:21;;;;;;;42.2;25.3;;;;;;;9.59;89.05;97901.666666667;;;;
2024/03/04 21:33:20;;;;;;;36.6;23.7;;;;;;;9.51;88.88;97893.333333333;;;;
2024/03/04 21:44:21;;;;;;;36.6;23.7;;;;;;;9.23;89.58;97893.333333333;;;;
2024/03/04 21:55:21;;;;;;;36.6;23.7;;;;;;;9.17;89.74;97898.333333333;;;;
2024/03/04 22:05:20;;;;;;;43;27.2;;;;;;;9.48;88.85;97921.666666667;;;;
2024/03/04 22:16:20;;;;;;;43;27.2;;;;;;;9.45;88.74;97920;;;;
2024/03/04 22:27:20;;;;;;;43;27.2;;;;;;;9.54;87.93;97920;;;;
2024/03/04 22:38:20;;;;;;;36.3;21.7;;;;;;;9.68;88.27;97920;;;;
2024/03/04 22:49:20;;;;;;;36.3;21.7;;;;;;;9.45;88.33;97903.333333333;;;;
2024/03/04 22:59:21;;;;;;;36.3;21.7;;;;;;;9.41;88.51;97910;;;;
2024/03/04 23:10:20;;;;;;;33.1;23.4;;;;;;;9.5;88.65;97910;;;;
2024/03/04 23:20:20;;;;;;;33.1;23.4;;;;;;;9.53;88.01;97902.5;;;;
2024/03/04 23:31:24;;;;;;;35.1;23.8;;;;;;;9.37;88.56;97915;;;;
2024/03/04 23:41:20;;;;;;;35.1;23.8;;;;;;;9.41;88.75;97920;;;;
2024/03/04 23:51:21;;;;;;;35.1;23.8;;;;;;;9.42;88.89;97900;;;;
